createdAt,value
2017-11-06T11:36:22.067Z,11.67
2017-11-06T11:37:26.356Z,12.01
2017-11-06T11:38:29.095Z,12.44
2017-11-06T11:39:31.698Z,12.63
2017-11-06T11:40:36.877Z,12.61
2017-11-06T11:41:42.826Z,12.54
2017-11-06T11:44:46.809Z,12.76
2017-11-06T11:45:51.848Z,12.61
2017-11-06T11:46:54.498Z,12.56
2017-11-06T11:47:56.997Z,12.44
2017-11-06T11:49:01.312Z,12.18
2017-11-06T11:50:05.659Z,12.29
2017-11-06T11:51:09.469Z,12.40
2017-11-06T11:52:13.571Z,12.41
2017-11-06T11:53:16.121Z,12.63
2017-11-06T11:54:20.484Z,12.59
2017-11-06T11:55:24.887Z,12.79
2017-11-06T11:56:29.463Z,12.67
2017-11-06T11:57:39.473Z,12.98
2017-11-06T11:58:42.851Z,13.19
2017-11-06T11:59:45.961Z,13.35
2017-11-06T12:00:50.791Z,13.54
2017-11-06T12:01:55.267Z,13.87
2017-11-06T12:03:01.878Z,14.05
2017-11-06T12:04:06.460Z,14.38
2017-11-06T12:05:10.969Z,14.48
2017-11-06T12:06:15.681Z,14.54
2017-11-06T12:07:19.452Z,14.61
2017-11-06T12:08:24.526Z,14.48
2017-11-06T12:09:28.999Z,14.67
2017-11-06T12:10:33.561Z,14.93
2017-11-06T12:11:38.605Z,15.25
2017-11-06T12:12:43.005Z,15.64
2017-11-06T12:13:45.359Z,16.26
2017-11-06T12:14:49.974Z,16.95
2017-11-06T12:15:54.967Z,17.43
2017-11-06T12:16:57.568Z,17.95
2017-11-06T12:18:02.027Z,18.47
2017-11-06T13:07:08.654Z,15.27
2017-11-06T13:08:13.481Z,15.11
2017-11-06T13:09:22.740Z,15.03
2017-11-06T13:10:26.916Z,14.82
2017-11-06T13:11:30.763Z,14.67
2017-11-06T13:12:33.372Z,14.57
2017-11-06T13:13:35.802Z,14.41
2017-11-06T13:14:38.326Z,14.36
2017-11-06T13:15:42.319Z,14.26
2017-11-06T13:16:46.004Z,14.01
2017-11-06T13:17:48.668Z,13.83
2017-11-06T13:18:53.980Z,13.72
2017-11-06T13:20:00.810Z,13.62
2017-11-06T13:21:05.299Z,13.35
2017-11-06T13:22:08.985Z,13.36
2017-11-06T13:23:13.423Z,13.13
2017-11-06T13:24:17.194Z,13.04
2017-11-06T13:25:20.945Z,12.87
2017-11-06T13:26:26.095Z,12.73
2017-11-06T13:27:30.556Z,12.56
2017-11-06T13:28:34.815Z,12.48
2017-11-06T13:29:39.412Z,12.30
2017-11-06T13:30:43.963Z,12.16
2017-11-06T13:31:48.505Z,12.19
2017-11-06T13:32:51.078Z,12.15
2017-11-06T13:33:55.736Z,12.11
2017-11-06T17:05:17.571Z,8.02
2017-11-06T17:06:22.084Z,7.94
2017-11-06T17:07:25.936Z,7.99
2017-11-06T17:08:29.633Z,8.06
2017-11-06T17:09:34.192Z,7.94
2017-11-06T17:10:36.637Z,7.96
2017-11-06T17:11:40.825Z,7.99
2017-11-06T17:12:45.143Z,7.99
2017-11-06T17:13:48.729Z,7.95
2017-11-06T17:14:50.668Z,7.94
2017-11-06T17:15:54.260Z,7.88
2017-11-06T17:16:58.046Z,7.82
2017-11-06T17:18:02.071Z,7.86
2017-11-06T17:19:06.150Z,7.86
2017-11-06T17:20:09.737Z,7.82
2017-11-06T17:21:14.101Z,7.79
2017-11-06T17:22:19.616Z,7.74
2017-11-06T17:23:23.917Z,7.76
2017-11-06T17:24:43.811Z,7.71
2017-11-06T17:25:49.221Z,7.74
2017-11-06T17:26:53.356Z,7.63
2017-11-06T17:27:57.657Z,7.62
2017-11-06T17:29:02.023Z,7.62
2017-11-06T17:30:04.618Z,7.62
2017-11-06T17:31:08.092Z,7.57
2017-11-06T17:32:12.512Z,7.44
2017-11-06T17:33:16.721Z,7.47
2017-11-06T17:34:20.447Z,7.44
2017-11-06T17:35:23.826Z,7.51
2017-11-06T17:36:28.022Z,7.45
2017-11-06T17:37:32.581Z,7.45
2017-11-06T17:38:36.907Z,7.44
2017-11-06T17:39:40.358Z,7.44
2017-11-06T17:40:44.011Z,7.36
2017-11-06T17:41:46.647Z,7.34
2017-11-06T17:42:49.173Z,7.29
2017-11-06T17:43:53.857Z,7.24
2017-11-06T17:44:58.504Z,7.19
2017-11-06T17:46:00.898Z,7.26
2017-11-06T17:47:04.511Z,7.26
2017-11-06T17:48:09.201Z,7.21
2017-11-06T17:49:13.496Z,7.18
2017-11-06T17:50:15.768Z,7.07
2017-11-06T17:51:19.559Z,7.05
2017-11-06T17:52:24.135Z,7.05
2017-11-06T17:53:28.348Z,6.97
2017-11-06T17:54:32.379Z,6.91
2017-11-06T17:55:35.650Z,6.91
2017-11-06T17:56:39.219Z,6.91
2017-11-06T17:57:42.551Z,6.91
2017-11-06T17:58:45.965Z,6.90
2017-11-06T17:59:50.838Z,6.82
2017-11-06T18:00:54.866Z,6.83
2017-11-06T18:01:59.252Z,6.82
2017-11-06T18:03:03.714Z,6.90
2017-11-06T18:04:06.185Z,6.83
2017-11-06T18:05:09.934Z,6.76
2017-11-06T18:06:14.101Z,6.83
2017-11-06T18:07:18.350Z,6.68
2017-11-06T18:08:22.321Z,6.75
2017-11-06T18:09:26.514Z,6.79
2017-11-06T18:10:29.108Z,6.69
2017-11-06T18:11:32.837Z,6.71
2017-11-06T18:12:37.496Z,6.68
2017-11-06T18:13:41.942Z,6.73
2017-11-06T18:14:46.216Z,6.64
2017-11-06T18:15:48.718Z,6.53
2017-11-06T18:16:52.939Z,6.54
2017-11-06T18:17:56.397Z,6.53
2017-11-06T18:19:01.723Z,6.54
2017-11-06T18:20:04.066Z,6.54
2017-11-06T18:21:07.675Z,6.61
